sensor_id;sensor_type;location;lat;lon;timestamp;P1;durP1;ratioP1;P2;durP2;ratioP2
73898;SDS011;62234;50.892;12.724;2023-07-29T00:00:59;1.85;;;0.88;;
73898;SDS011;62234;50.892;12.724;2023-07-29T00:03:26;0.80;;;0.80;;
73898;SDS011;62234;50.892;12.724;2023-07-29T00:05:52;0.65;;;0.65;;
73898;SDS011;62234;50.892;12.724;2023-07-29T00:08:18;0.82;;;0.82;;
73898;SDS011;62234;50.892;12.724;2023-07-29T00:10:44;2.33;;;0.77;;
73898;SDS011;62234;50.892;12.724;2023-07-29T00:13:10;0.70;;;0.70;;
73898;SDS011;62234;50.892;12.724;2023-07-29T00:15:35;1.45;;;0.90;;
73898;SDS011;62234;50.892;12.724;2023-07-29T00:18:01;1.30;;;0.80;;
73898;SDS011;62234;50.892;12.724;2023-07-29T00:20:27;0.95;;;0.82;;
73898;SDS011;62234;50.892;12.724;2023-07-29T00:22:53;1.42;;;0.70;;
73898;SDS011;62234;50.892;12.724;2023-07-29T00:25:20;0.77;;;0.68;;
73898;SDS011;62234;50.892;12.724;2023-07-29T00:27:46;0.80;;;0.80;;
73898;SDS011;62234;50.892;12.724;2023-07-29T00:30:12;0.95;;;0.60;;
73898;SDS011;62234;50.892;12.724;2023-07-29T00:32:38;0.80;;;0.80;;
73898;SDS011;62234;50.892;12.724;2023-07-29T00:35:04;1.05;;;0.82;;
73898;SDS011;62234;50.892;12.724;2023-07-29T00:37:30;1.38;;;0.80;;
73898;SDS011;62234;50.892;12.724;2023-07-29T00:39:56;1.60;;;0.82;;
73898;SDS011;62234;50.892;12.724;2023-07-29T00:42:23;2.40;;;0.80;;
73898;SDS011;62234;50.892;12.724;2023-07-29T00:44:49;2.53;;;0.60;;
73898;SDS011;62234;50.892;12.724;2023-07-29T00:47:15;2.38;;;1.23;;
73898;SDS011;62234;50.892;12.724;2023-07-29T00:49:41;1.83;;;1.05;;
73898;SDS011;62234;50.892;12.724;2023-07-29T00:52:07;1.08;;;0.80;;
73898;SDS011;62234;50.892;12.724;2023-07-29T00:54:36;0.98;;;0.98;;
73898;SDS011;62234;50.892;12.724;2023-07-29T00:57:02;1.85;;;0.82;;
73898;SDS011;62234;50.892;12.724;2023-07-29T00:59:28;0.80;;;0.60;;
73898;SDS011;62234;50.892;12.724;2023-07-29T01:01:55;0.80;;;0.63;;
73898;SDS011;62234;50.892;12.724;2023-07-29T01:04:21;0.68;;;0.63;;
73898;SDS011;62234;50.892;12.724;2023-07-29T01:06:56;0.73;;;0.70;;
73898;SDS011;62234;50.892;12.724;2023-07-29T01:09:35;0.70;;;0.70;;
73898;SDS011;62234;50.892;12.724;2023-07-29T01:14:47;1.20;;;0.90;;
73898;SDS011;62234;50.892;12.724;2023-07-29T01:17:17;0.50;;;0.50;;
73898;SDS011;62234;50.892;12.724;2023-07-29T01:20:01;1.02;;;0.90;;
73898;SDS011;62234;50.892;12.724;2023-07-29T01:22:30;0.80;;;0.80;;
73898;SDS011;62234;50.892;12.724;2023-07-29T01:24:58;0.80;;;0.80;;
73898;SDS011;62234;50.892;12.724;2023-07-29T01:27:24;1.52;;;0.75;;
73898;SDS011;62234;50.892;12.724;2023-07-29T01:29:50;1.55;;;0.90;;
73898;SDS011;62234;50.892;12.724;2023-07-29T01:32:22;0.90;;;0.90;;
73898;SDS011;62234;50.892;12.724;2023-07-29T01:34:51;0.60;;;0.60;;
73898;SDS011;62234;50.892;12.724;2023-07-29T01:37:22;0.85;;;0.85;;
73898;SDS011;62234;50.892;12.724;2023-07-29T01:39:51;2.95;;;0.88;;
73898;SDS011;62234;50.892;12.724;2023-07-29T01:42:18;0.70;;;0.70;;
73898;SDS011;62234;50.892;12.724;2023-07-29T01:44:44;0.82;;;0.40;;
73898;SDS011;62234;50.892;12.724;2023-07-29T01:47:10;0.73;;;0.55;;
73898;SDS011;62234;50.892;12.724;2023-07-29T01:49:36;0.70;;;0.50;;
73898;SDS011;62234;50.892;12.724;2023-07-29T01:52:02;0.60;;;0.60;;
73898;SDS011;62234;50.892;12.724;2023-07-29T01:54:28;0.60;;;0.60;;
73898;SDS011;62234;50.892;12.724;2023-07-29T01:56:54;2.08;;;0.45;;
73898;SDS011;62234;50.892;12.724;2023-07-29T01:59:20;0.40;;;0.40;;
73898;SDS011;62234;50.892;12.724;2023-07-29T02:01:46;0.60;;;0.60;;
73898;SDS011;62234;50.892;12.724;2023-07-29T02:04:12;0.80;;;0.57;;
73898;SDS011;62234;50.892;12.724;2023-07-29T02:06:38;0.63;;;0.63;;
73898;SDS011;62234;50.892;12.724;2023-07-29T02:09:04;0.50;;;0.50;;
73898;SDS011;62234;50.892;12.724;2023-07-29T02:11:30;1.08;;;0.68;;
73898;SDS011;62234;50.892;12.724;2023-07-29T02:13:56;0.65;;;0.60;;
73898;SDS011;62234;50.892;12.724;2023-07-29T02:16:22;0.60;;;0.60;;
73898;SDS011;62234;50.892;12.724;2023-07-29T02:18:48;0.50;;;0.50;;
73898;SDS011;62234;50.892;12.724;2023-07-29T02:21:15;1.25;;;0.43;;
73898;SDS011;62234;50.892;12.724;2023-07-29T02:23:41;0.80;;;0.38;;
73898;SDS011;62234;50.892;12.724;2023-07-29T02:26:07;0.43;;;0.43;;
73898;SDS011;62234;50.892;12.724;2023-07-29T02:28:33;0.47;;;0.43;;
73898;SDS011;62234;50.892;12.724;2023-07-29T02:31:32;0.40;;;0.40;;
73898;SDS011;62234;50.892;12.724;2023-07-29T02:33:51;1.67;;;0.32;;
73898;SDS011;62234;50.892;12.724;2023-07-29T02:36:17;0.40;;;0.40;;
73898;SDS011;62234;50.892;12.724;2023-07-29T02:38:43;1.65;;;0.47;;
73898;SDS011;62234;50.892;12.724;2023-07-29T02:41:09;0.43;;;0.43;;
73898;SDS011;62234;50.892;12.724;2023-07-29T02:43:37;0.77;;;0.65;;
73898;SDS011;62234;50.892;12.724;2023-07-29T02:46:03;0.60;;;0.50;;
73898;SDS011;62234;50.892;12.724;2023-07-29T02:48:29;0.40;;;0.40;;
73898;SDS011;62234;50.892;12.724;2023-07-29T02:50:55;0.40;;;0.40;;
73898;SDS011;62234;50.892;12.724;2023-07-29T02:53:21;0.25;;;0.25;;
73898;SDS011;62234;50.892;12.724;2023-07-29T02:55:48;0.77;;;0.50;;
73898;SDS011;62234;50.892;12.724;2023-07-29T02:58:14;3.13;;;0.40;;
73898;SDS011;62234;50.892;12.724;2023-07-29T03:00:40;0.50;;;0.50;;
73898;SDS011;62234;50.892;12.724;2023-07-29T03:03:07;1.85;;;0.50;;
73898;SDS011;62234;50.892;12.724;2023-07-29T03:05:33;0.73;;;0.50;;
73898;SDS011;62234;50.892;12.724;2023-07-29T03:07:59;0.50;;;0.50;;
73898;SDS011;62234;50.892;12.724;2023-07-29T03:10:25;0.60;;;0.60;;
73898;SDS011;62234;50.892;12.724;2023-07-29T03:12:53;0.55;;;0.55;;
73898;SDS011;62234;50.892;12.724;2023-07-29T03:15:22;0.70;;;0.70;;
73898;SDS011;62234;50.892;12.724;2023-07-29T03:17:49;0.52;;;0.30;;
73898;SDS011;62234;50.892;12.724;2023-07-29T03:20:15;0.57;;;0.57;;
73898;SDS011;62234;50.892;12.724;2023-07-29T03:22:42;0.73;;;0.70;;
73898;SDS011;62234;50.892;12.724;2023-07-29T03:25:08;0.65;;;0.50;;
73898;SDS011;62234;50.892;12.724;2023-07-29T03:27:34;0.50;;;0.50;;
73898;SDS011;62234;50.892;12.724;2023-07-29T03:30:02;0.30;;;0.30;;
73898;SDS011;62234;50.892;12.724;2023-07-29T03:32:28;0.85;;;0.65;;
73898;SDS011;62234;50.892;12.724;2023-07-29T03:34:54;1.70;;;0.60;;
73898;SDS011;62234;50.892;12.724;2023-07-29T03:37:20;0.55;;;0.55;;
73898;SDS011;62234;50.892;12.724;2023-07-29T03:39:46;2.60;;;0.55;;
73898;SDS011;62234;50.892;12.724;2023-07-29T03:42:12;0.60;;;0.60;;
73898;SDS011;62234;50.892;12.724;2023-07-29T03:44:38;1.70;;;0.60;;
73898;SDS011;62234;50.892;12.724;2023-07-29T03:47:04;0.52;;;0.52;;
73898;SDS011;62234;50.892;12.724;2023-07-29T03:49:30;1.08;;;0.77;;
73898;SDS011;62234;50.892;12.724;2023-07-29T03:51:56;1.48;;;0.75;;
73898;SDS011;62234;50.892;12.724;2023-07-29T03:54:22;4.70;;;0.80;;
73898;SDS011;62234;50.892;12.724;2023-07-29T03:56:48;1.10;;;0.70;;
73898;SDS011;62234;50.892;12.724;2023-07-29T03:59:14;0.70;;;0.70;;
73898;SDS011;62234;50.892;12.724;2023-07-29T04:01:41;0.93;;;0.93;;
73898;SDS011;62234;50.892;12.724;2023-07-29T04:04:06;0.80;;;0.73;;
73898;SDS011;62234;50.892;12.724;2023-07-29T04:06:32;2.42;;;1.08;;
73898;SDS011;62234;50.892;12.724;2023-07-29T04:08:58;0.95;;;0.90;;
73898;SDS011;62234;50.892;12.724;2023-07-29T04:11:24;1.05;;;0.80;;
73898;SDS011;62234;50.892;12.724;2023-07-29T04:13:51;1.00;;;0.90;;
73898;SDS011;62234;50.892;12.724;2023-07-29T04:16:16;0.73;;;0.73;;
73898;SDS011;62234;50.892;12.724;2023-07-29T04:18:42;0.75;;;0.75;;
73898;SDS011;62234;50.892;12.724;2023-07-29T04:21:08;0.73;;;0.73;;
73898;SDS011;62234;50.892;12.724;2023-07-29T04:23:34;0.75;;;0.75;;
73898;SDS011;62234;50.892;12.724;2023-07-29T04:26:00;1.00;;;0.90;;
73898;SDS011;62234;50.892;12.724;2023-07-29T04:28:26;0.77;;;0.77;;
73898;SDS011;62234;50.892;12.724;2023-07-29T04:30:52;0.80;;;0.80;;
73898;SDS011;62234;50.892;12.724;2023-07-29T04:33:18;1.10;;;0.63;;
73898;SDS011;62234;50.892;12.724;2023-07-29T04:35:44;3.35;;;0.90;;
73898;SDS011;62234;50.892;12.724;2023-07-29T04:38:10;0.80;;;0.80;;
73898;SDS011;62234;50.892;12.724;2023-07-29T04:40:36;0.85;;;0.85;;
73898;SDS011;62234;50.892;12.724;2023-07-29T04:43:02;1.08;;;1.00;;
73898;SDS011;62234;50.892;12.724;2023-07-29T04:45:28;0.70;;;0.70;;
73898;SDS011;62234;50.892;12.724;2023-07-29T04:47:55;1.92;;;1.00;;
73898;SDS011;62234;50.892;12.724;2023-07-29T04:50:21;1.73;;;0.90;;
73898;SDS011;62234;50.892;12.724;2023-07-29T04:52:47;0.98;;;0.98;;
73898;SDS011;62234;50.892;12.724;2023-07-29T04:55:12;2.25;;;0.93;;
73898;SDS011;62234;50.892;12.724;2023-07-29T04:57:38;1.10;;;1.00;;
73898;SDS011;62234;50.892;12.724;2023-07-29T05:00:05;1.17;;;1.08;;
73898;SDS011;62234;50.892;12.724;2023-07-29T05:02:31;0.80;;;0.68;;
73898;SDS011;62234;50.892;12.724;2023-07-29T05:04:57;3.47;;;1.20;;
73898;SDS011;62234;50.892;12.724;2023-07-29T05:07:22;0.73;;;0.70;;
73898;SDS011;62234;50.892;12.724;2023-07-29T05:09:49;1.00;;;0.95;;
73898;SDS011;62234;50.892;12.724;2023-07-29T05:12:15;1.13;;;1.13;;
73898;SDS011;62234;50.892;12.724;2023-07-29T05:14:41;0.90;;;0.90;;
73898;SDS011;62234;50.892;12.724;2023-07-29T05:17:07;1.38;;;0.70;;
73898;SDS011;62234;50.892;12.724;2023-07-29T05:19:33;0.80;;;0.80;;
73898;SDS011;62234;50.892;12.724;2023-07-29T05:21:58;0.85;;;0.85;;
73898;SDS011;62234;50.892;12.724;2023-07-29T05:24:24;0.68;;;0.68;;
73898;SDS011;62234;50.892;12.724;2023-07-29T05:26:50;0.80;;;0.80;;
73898;SDS011;62234;50.892;12.724;2023-07-29T05:29:16;1.17;;;1.08;;
73898;SDS011;62234;50.892;12.724;2023-07-29T05:31:42;1.10;;;1.00;;
73898;SDS011;62234;50.892;12.724;2023-07-29T05:34:08;2.30;;;0.80;;
73898;SDS011;62234;50.892;12.724;2023-07-29T05:36:34;0.70;;;0.70;;
73898;SDS011;62234;50.892;12.724;2023-07-29T05:39:00;0.80;;;0.80;;
73898;SDS011;62234;50.892;12.724;2023-07-29T05:41:26;1.35;;;0.70;;
73898;SDS011;62234;50.892;12.724;2023-07-29T05:43:53;0.93;;;0.70;;
73898;SDS011;62234;50.892;12.724;2023-07-29T05:46:19;1.42;;;0.77;;
73898;SDS011;62234;50.892;12.724;2023-07-29T05:48:45;0.73;;;0.68;;
73898;SDS011;62234;50.892;12.724;2023-07-29T05:51:11;0.80;;;0.63;;
73898;SDS011;62234;50.892;12.724;2023-07-29T05:53:37;0.52;;;0.52;;
73898;SDS011;62234;50.892;12.724;2023-07-29T05:56:03;0.88;;;0.80;;
73898;SDS011;62234;50.892;12.724;2023-07-29T05:58:29;1.13;;;1.02;;
73898;SDS011;62234;50.892;12.724;2023-07-29T06:00:56;0.95;;;0.95;;
73898;SDS011;62234;50.892;12.724;2023-07-29T06:03:22;0.90;;;0.80;;
73898;SDS011;62234;50.892;12.724;2023-07-29T06:05:48;1.05;;;0.75;;
73898;SDS011;62234;50.892;12.724;2023-07-29T06:08:14;0.80;;;0.80;;
73898;SDS011;62234;50.892;12.724;2023-07-29T06:10:40;0.57;;;0.57;;
73898;SDS011;62234;50.892;12.724;2023-07-29T06:13:06;1.83;;;0.60;;
73898;SDS011;62234;50.892;12.724;2023-07-29T06:15:32;0.82;;;0.68;;
73898;SDS011;62234;50.892;12.724;2023-07-29T06:17:58;2.05;;;0.50;;
73898;SDS011;62234;50.892;12.724;2023-07-29T06:20:24;0.57;;;0.57;;
73898;SDS011;62234;50.892;12.724;2023-07-29T06:22:49;0.70;;;0.70;;
73898;SDS011;62234;50.892;12.724;2023-07-29T06:25:16;5.93;;;0.60;;
73898;SDS011;62234;50.892;12.724;2023-07-29T06:27:41;0.40;;;0.40;;
73898;SDS011;62234;50.892;12.724;2023-07-29T06:30:07;0.65;;;0.50;;
73898;SDS011;62234;50.892;12.724;2023-07-29T06:32:34;1.55;;;0.50;;
73898;SDS011;62234;50.892;12.724;2023-07-29T06:35:00;2.25;;;0.60;;
73898;SDS011;62234;50.892;12.724;2023-07-29T06:37:26;0.63;;;0.63;;
73898;SDS011;62234;50.892;12.724;2023-07-29T06:39:52;0.75;;;0.65;;
73898;SDS011;62234;50.892;12.724;2023-07-29T06:42:18;1.08;;;0.52;;
73898;SDS011;62234;50.892;12.724;2023-07-29T06:44:44;0.43;;;0.40;;
73898;SDS011;62234;50.892;12.724;2023-07-29T06:47:13;1.15;;;0.70;;
73898;SDS011;62234;50.892;12.724;2023-07-29T06:49:39;0.35;;;0.35;;
73898;SDS011;62234;50.892;12.724;2023-07-29T06:52:05;0.50;;;0.50;;
73898;SDS011;62234;50.892;12.724;2023-07-29T06:54:31;0.68;;;0.65;;
73898;SDS011;62234;50.892;12.724;2023-07-29T06:56:56;0.47;;;0.47;;
73898;SDS011;62234;50.892;12.724;2023-07-29T06:59:22;0.60;;;0.60;;
73898;SDS011;62234;50.892;12.724;2023-07-29T07:01:49;0.88;;;0.50;;
73898;SDS011;62234;50.892;12.724;2023-07-29T07:04:15;0.40;;;0.38;;
73898;SDS011;62234;50.892;12.724;2023-07-29T07:06:41;0.47;;;0.40;;
73898;SDS011;62234;50.892;12.724;2023-07-29T07:09:07;0.75;;;0.50;;
73898;SDS011;62234;50.892;12.724;2023-07-29T07:11:33;0.40;;;0.40;;
73898;SDS011;62234;50.892;12.724;2023-07-29T07:13:59;1.48;;;0.40;;
73898;SDS011;62234;50.892;12.724;2023-07-29T07:16:25;0.50;;;0.50;;
73898;SDS011;62234;50.892;12.724;2023-07-29T07:18:54;0.98;;;0.65;;
73898;SDS011;62234;50.892;12.724;2023-07-29T07:21:20;0.50;;;0.50;;
73898;SDS011;62234;50.892;12.724;2023-07-29T07:23:46;0.57;;;0.40;;
73898;SDS011;62234;50.892;12.724;2023-07-29T07:26:12;0.50;;;0.50;;
73898;SDS011;62234;50.892;12.724;2023-07-29T07:28:38;1.08;;;0.50;;
73898;SDS011;62234;50.892;12.724;2023-07-29T07:31:03;1.60;;;0.50;;
73898;SDS011;62234;50.892;12.724;2023-07-29T07:33:30;0.57;;;0.47;;
73898;SDS011;62234;50.892;12.724;2023-07-29T07:35:55;0.50;;;0.50;;
73898;SDS011;62234;50.892;12.724;2023-07-29T07:38:21;0.50;;;0.50;;
73898;SDS011;62234;50.892;12.724;2023-07-29T07:40:54;1.30;;;0.40;;
73898;SDS011;62234;50.892;12.724;2023-07-29T07:43:20;1.95;;;0.60;;
73898;SDS011;62234;50.892;12.724;2023-07-29T07:45:46;0.60;;;0.60;;
73898;SDS011;62234;50.892;12.724;2023-07-29T07:48:12;0.70;;;0.50;;
73898;SDS011;62234;50.892;12.724;2023-07-29T07:50:39;0.75;;;0.47;;
73898;SDS011;62234;50.892;12.724;2023-07-29T07:53:05;8.73;;;1.08;;
73898;SDS011;62234;50.892;12.724;2023-07-29T07:55:31;0.60;;;0.40;;
73898;SDS011;62234;50.892;12.724;2023-07-29T07:57:56;2.58;;;0.55;;
73898;SDS011;62234;50.892;12.724;2023-07-29T08:00:22;0.95;;;0.60;;
73898;SDS011;62234;50.892;12.724;2023-07-29T08:02:48;0.50;;;0.50;;
73898;SDS011;62234;50.892;12.724;2023-07-29T08:05:14;0.60;;;0.57;;
73898;SDS011;62234;50.892;12.724;2023-07-29T08:07:40;0.38;;;0.38;;
73898;SDS011;62234;50.892;12.724;2023-07-29T08:10:06;0.85;;;0.40;;
73898;SDS011;62234;50.892;12.724;2023-07-29T08:12:32;0.30;;;0.30;;
73898;SDS011;62234;50.892;12.724;2023-07-29T08:14:58;0.43;;;0.43;;
73898;SDS011;62234;50.892;12.724;2023-07-29T08:17:24;0.63;;;0.63;;
73898;SDS011;62234;50.892;12.724;2023-07-29T08:19:50;1.85;;;0.57;;
73898;SDS011;62234;50.892;12.724;2023-07-29T08:22:16;0.57;;;0.57;;
73898;SDS011;62234;50.892;12.724;2023-07-29T08:24:42;1.20;;;0.70;;
73898;SDS011;62234;50.892;12.724;2023-07-29T08:27:08;0.43;;;0.43;;
73898;SDS011;62234;50.892;12.724;2023-07-29T08:29:34;0.50;;;0.50;;
73898;SDS011;62234;50.892;12.724;2023-07-29T08:32:00;0.50;;;0.45;;
73898;SDS011;62234;50.892;12.724;2023-07-29T08:34:26;0.95;;;0.68;;
73898;SDS011;62234;50.892;12.724;2023-07-29T08:36:52;0.60;;;0.60;;
73898;SDS011;62234;50.892;12.724;2023-07-29T08:39:18;0.80;;;0.60;;
73898;SDS011;62234;50.892;12.724;2023-07-29T08:41:45;0.50;;;0.50;;
73898;SDS011;62234;50.892;12.724;2023-07-29T08:44:18;1.83;;;0.40;;
73898;SDS011;62234;50.892;12.724;2023-07-29T08:46:47;0.50;;;0.43;;
73898;SDS011;62234;50.892;12.724;2023-07-29T08:49:13;0.30;;;0.30;;
73898;SDS011;62234;50.892;12.724;2023-07-29T08:51:41;0.40;;;0.40;;
73898;SDS011;62234;50.892;12.724;2023-07-29T08:54:07;0.40;;;0.30;;
73898;SDS011;62234;50.892;12.724;2023-07-29T08:56:34;1.70;;;0.40;;
73898;SDS011;62234;50.892;12.724;2023-07-29T08:59:00;0.55;;;0.52;;
73898;SDS011;62234;50.892;12.724;2023-07-29T09:01:27;0.63;;;0.50;;
73898;SDS011;62234;50.892;12.724;2023-07-29T09:03:55;0.60;;;0.50;;
73898;SDS011;62234;50.892;12.724;2023-07-29T09:06:21;0.45;;;0.45;;
73898;SDS011;62234;50.892;12.724;2023-07-29T09:08:48;0.30;;;0.30;;
73898;SDS011;62234;50.892;12.724;2023-07-29T09:11:14;0.32;;;0.30;;
73898;SDS011;62234;50.892;12.724;2023-07-29T09:13:44;0.10;;;0.10;;
73898;SDS011;62234;50.892;12.724;2023-07-29T09:16:10;1.58;;;0.30;;
73898;SDS011;62234;50.892;12.724;2023-07-29T09:18:36;0.57;;;0.50;;
73898;SDS011;62234;50.892;12.724;2023-07-29T09:21:02;0.47;;;0.47;;
73898;SDS011;62234;50.892;12.724;2023-07-29T09:23:28;0.98;;;0.60;;
73898;SDS011;62234;50.892;12.724;2023-07-29T09:26:04;2.13;;;0.40;;
73898;SDS011;62234;50.892;12.724;2023-07-29T09:28:33;0.40;;;0.40;;
73898;SDS011;62234;50.892;12.724;2023-07-29T09:31:00;0.47;;;0.47;;
73898;SDS011;62234;50.892;12.724;2023-07-29T09:33:26;0.65;;;0.50;;
73898;SDS011;62234;50.892;12.724;2023-07-29T09:35:52;0.52;;;0.30;;
73898;SDS011;62234;50.892;12.724;2023-07-29T09:38:18;0.35;;;0.28;;
73898;SDS011;62234;50.892;12.724;2023-07-29T09:40:51;0.45;;;0.40;;
73898;SDS011;62234;50.892;12.724;2023-07-29T09:43:20;1.88;;;0.30;;
73898;SDS011;62234;50.892;12.724;2023-07-29T09:45:51;1.23;;;0.45;;
73898;SDS011;62234;50.892;12.724;2023-07-29T09:48:19;0.40;;;0.40;;
73898;SDS011;62234;50.892;12.724;2023-07-29T09:50:47;0.32;;;0.32;;
73898;SDS011;62234;50.892;12.724;2023-07-29T09:53:14;0.40;;;0.40;;
73898;SDS011;62234;50.892;12.724;2023-07-29T09:55:40;0.28;;;0.28;;
73898;SDS011;62234;50.892;12.724;2023-07-29T09:58:11;0.73;;;0.30;;
73898;SDS011;62234;50.892;12.724;2023-07-29T10:00:37;0.17;;;0.17;;
73898;SDS011;62234;50.892;12.724;2023-07-29T10:03:04;1.45;;;0.38;;
73898;SDS011;62234;50.892;12.724;2023-07-29T10:05:32;0.45;;;0.30;;
73898;SDS011;62234;50.892;12.724;2023-07-29T10:08:00;0.73;;;0.20;;
73898;SDS011;62234;50.892;12.724;2023-07-29T10:10:27;0.50;;;0.10;;
73898;SDS011;62234;50.892;12.724;2023-07-29T10:12:54;0.73;;;0.10;;
73898;SDS011;62234;50.892;12.724;2023-07-29T10:15:20;0.43;;;0.22;;
73898;SDS011;62234;50.892;12.724;2023-07-29T10:17:46;1.25;;;0.30;;
73898;SDS011;62234;50.892;12.724;2023-07-29T10:20:12;0.20;;;0.10;;
73898;SDS011;62234;50.892;12.724;2023-07-29T10:22:39;0.10;;;0.10;;
73898;SDS011;62234;50.892;12.724;2023-07-29T10:25:23;0.20;;;0.20;;
73898;SDS011;62234;50.892;12.724;2023-07-29T10:27:53;0.30;;;0.30;;
73898;SDS011;62234;50.892;12.724;2023-07-29T10:30:22;0.15;;;0.15;;
73898;SDS011;62234;50.892;12.724;2023-07-29T10:32:49;0.20;;;0.20;;
73898;SDS011;62234;50.892;12.724;2023-07-29T10:35:15;0.30;;;0.30;;
73898;SDS011;62234;50.892;12.724;2023-07-29T10:37:42;0.38;;;0.20;;
73898;SDS011;62234;50.892;12.724;2023-07-29T10:40:09;1.08;;;0.30;;
73898;SDS011;62234;50.892;12.724;2023-07-29T10:42:36;1.13;;;0.30;;
73898;SDS011;62234;50.892;12.724;2023-07-29T10:45:21;0.80;;;0.30;;
73898;SDS011;62234;50.892;12.724;2023-07-29T10:47:47;0.30;;;0.30;;
73898;SDS011;62234;50.892;12.724;2023-07-29T10:50:20;0.40;;;0.30;;
73898;SDS011;62234;50.892;12.724;2023-07-29T10:52:50;0.63;;;0.30;;
73898;SDS011;62234;50.892;12.724;2023-07-29T10:55:29;0.30;;;0.30;;
73898;SDS011;62234;50.892;12.724;2023-07-29T10:58:08;0.40;;;0.40;;
73898;SDS011;62234;50.892;12.724;2023-07-29T11:00:34;0.40;;;0.40;;
73898;SDS011;62234;50.892;12.724;2023-07-29T11:03:02;0.60;;;0.50;;
73898;SDS011;62234;50.892;12.724;2023-07-29T11:05:41;0.40;;;0.40;;
73898;SDS011;62234;50.892;12.724;2023-07-29T11:10:43;0.45;;;0.30;;
73898;SDS011;62234;50.892;12.724;2023-07-29T11:13:09;1.83;;;0.40;;
73898;SDS011;62234;50.892;12.724;2023-07-29T11:15:37;2.13;;;0.40;;
73898;SDS011;62234;50.892;12.724;2023-07-29T11:18:04;0.82;;;0.52;;
73898;SDS011;62234;50.892;12.724;2023-07-29T11:20:33;0.73;;;0.40;;
73898;SDS011;62234;50.892;12.724;2023-07-29T11:23:00;0.50;;;0.32;;
73898;SDS011;62234;50.892;12.724;2023-07-29T11:25:27;0.50;;;0.40;;
73898;SDS011;62234;50.892;12.724;2023-07-29T11:27:54;0.57;;;0.40;;
73898;SDS011;62234;50.892;12.724;2023-07-29T11:30:20;2.40;;;0.68;;
73898;SDS011;62234;50.892;12.724;2023-07-29T11:32:48;0.70;;;0.60;;
73898;SDS011;62234;50.892;12.724;2023-07-29T11:35:15;1.00;;;0.60;;
73898;SDS011;62234;50.892;12.724;2023-07-29T11:37:43;1.05;;;0.55;;
73898;SDS011;62234;50.892;12.724;2023-07-29T11:40:09;0.35;;;0.35;;
73898;SDS011;62234;50.892;12.724;2023-07-29T11:42:37;0.52;;;0.40;;
73898;SDS011;62234;50.892;12.724;2023-07-29T11:45:04;2.38;;;0.20;;
73898;SDS011;62234;50.892;12.724;2023-07-29T11:47:31;0.85;;;0.28;;
73898;SDS011;62234;50.892;12.724;2023-07-29T11:50:01;0.35;;;0.28;;
73898;SDS011;62234;50.892;12.724;2023-07-29T11:52:27;0.35;;;0.35;;
73898;SDS011;62234;50.892;12.724;2023-07-29T11:54:53;0.25;;;0.25;;
73898;SDS011;62234;50.892;12.724;2023-07-29T11:57:19;0.93;;;0.30;;
73898;SDS011;62234;50.892;12.724;2023-07-29T11:59:45;1.75;;;0.47;;
73898;SDS011;62234;50.892;12.724;2023-07-29T12:02:12;0.50;;;0.50;;
73898;SDS011;62234;50.892;12.724;2023-07-29T12:04:38;0.57;;;0.30;;
73898;SDS011;62234;50.892;12.724;2023-07-29T12:07:05;0.75;;;0.30;;
73898;SDS011;62234;50.892;12.724;2023-07-29T12:09:31;0.93;;;0.47;;
73898;SDS011;62234;50.892;12.724;2023-07-29T12:11:57;0.30;;;0.17;;
73898;SDS011;62234;50.892;12.724;2023-07-29T12:14:28;2.92;;;0.20;;
73898;SDS011;62234;50.892;12.724;2023-07-29T12:16:54;0.50;;;0.20;;
73898;SDS011;62234;50.892;12.724;2023-07-29T12:19:20;0.77;;;0.30;;
73898;SDS011;62234;50.892;12.724;2023-07-29T12:21:47;0.10;;;0.10;;
73898;SDS011;62234;50.892;12.724;2023-07-29T12:24:14;0.47;;;0.28;;
73898;SDS011;62234;50.892;12.724;2023-07-29T12:26:40;0.75;;;0.20;;
73898;SDS011;62234;50.892;12.724;2023-07-29T12:29:13;0.20;;;0.20;;
73898;SDS011;62234;50.892;12.724;2023-07-29T12:31:40;0.88;;;0.38;;
73898;SDS011;62234;50.892;12.724;2023-07-29T12:34:06;0.95;;;0.20;;
73898;SDS011;62234;50.892;12.724;2023-07-29T12:36:42;0.40;;;0.40;;
73898;SDS011;62234;50.892;12.724;2023-07-29T12:41:47;1.20;;;0.20;;
73898;SDS011;62234;50.892;12.724;2023-07-29T12:44:13;1.83;;;0.20;;
73898;SDS011;62234;50.892;12.724;2023-07-29T12:46:39;0.63;;;0.20;;
73898;SDS011;62234;50.892;12.724;2023-07-29T12:49:05;0.88;;;0.17;;
73898;SDS011;62234;50.892;12.724;2023-07-29T12:51:31;3.65;;;0.20;;
73898;SDS011;62234;50.892;12.724;2023-07-29T12:53:58;0.30;;;0.15;;
73898;SDS011;62234;50.892;12.724;2023-07-29T12:56:24;2.17;;;0.40;;
73898;SDS011;62234;50.892;12.724;2023-07-29T12:58:49;1.33;;;0.30;;
73898;SDS011;62234;50.892;12.724;2023-07-29T13:01:15;0.45;;;0.20;;
73898;SDS011;62234;50.892;12.724;2023-07-29T13:03:46;0.20;;;0.20;;
73898;SDS011;62234;50.892;12.724;2023-07-29T13:06:12;0.28;;;0.20;;
73898;SDS011;62234;50.892;12.724;2023-07-29T13:08:38;1.05;;;0.20;;
73898;SDS011;62234;50.892;12.724;2023-07-29T13:11:03;0.55;;;0.30;;
73898;SDS011;62234;50.892;12.724;2023-07-29T13:13:30;0.45;;;0.40;;
73898;SDS011;62234;50.892;12.724;2023-07-29T13:15:56;0.40;;;0.40;;
73898;SDS011;62234;50.892;12.724;2023-07-29T13:18:22;0.38;;;0.38;;
73898;SDS011;62234;50.892;12.724;2023-07-29T13:20:48;0.57;;;0.40;;
73898;SDS011;62234;50.892;12.724;2023-07-29T13:23:14;1.15;;;0.38;;
73898;SDS011;62234;50.892;12.724;2023-07-29T13:25:40;0.50;;;0.50;;
73898;SDS011;62234;50.892;12.724;2023-07-29T13:28:07;0.20;;;0.20;;
73898;SDS011;62234;50.892;12.724;2023-07-29T13:30:33;0.52;;;0.47;;
73898;SDS011;62234;50.892;12.724;2023-07-29T13:32:59;0.45;;;0.40;;
73898;SDS011;62234;50.892;12.724;2023-07-29T13:35:24;0.60;;;0.50;;
73898;SDS011;62234;50.892;12.724;2023-07-29T13:37:50;0.68;;;0.40;;
73898;SDS011;62234;50.892;12.724;2023-07-29T13:40:16;1.15;;;0.40;;
73898;SDS011;62234;50.892;12.724;2023-07-29T13:42:42;0.47;;;0.40;;
73898;SDS011;62234;50.892;12.724;2023-07-29T13:45:08;0.68;;;0.47;;
73898;SDS011;62234;50.892;12.724;2023-07-29T13:47:34;1.17;;;0.52;;
73898;SDS011;62234;50.892;12.724;2023-07-29T13:50:00;1.33;;;0.68;;
73898;SDS011;62234;50.892;12.724;2023-07-29T13:52:26;0.40;;;0.38;;
73898;SDS011;62234;50.892;12.724;2023-07-29T13:54:52;0.40;;;0.40;;
73898;SDS011;62234;50.892;12.724;2023-07-29T13:57:18;0.43;;;0.20;;
73898;SDS011;62234;50.892;12.724;2023-07-29T13:59:44;0.90;;;0.40;;
73898;SDS011;62234;50.892;12.724;2023-07-29T14:02:10;0.70;;;0.50;;
73898;SDS011;62234;50.892;12.724;2023-07-29T14:04:36;0.68;;;0.45;;
73898;SDS011;62234;50.892;12.724;2023-07-29T14:07:02;0.50;;;0.50;;
73898;SDS011;62234;50.892;12.724;2023-07-29T14:09:28;0.68;;;0.57;;
73898;SDS011;62234;50.892;12.724;2023-07-29T14:11:54;0.30;;;0.30;;
73898;SDS011;62234;50.892;12.724;2023-07-29T14:14:20;0.93;;;0.40;;
73898;SDS011;62234;50.892;12.724;2023-07-29T14:16:46;0.40;;;0.40;;
73898;SDS011;62234;50.892;12.724;2023-07-29T14:19:12;0.70;;;0.60;;
73898;SDS011;62234;50.892;12.724;2023-07-29T14:21:38;1.40;;;0.45;;
73898;SDS011;62234;50.892;12.724;2023-07-29T14:24:05;0.50;;;0.40;;
73898;SDS011;62234;50.892;12.724;2023-07-29T14:26:31;0.43;;;0.43;;
73898;SDS011;62234;50.892;12.724;2023-07-29T14:28:56;0.30;;;0.30;;
73898;SDS011;62234;50.892;12.724;2023-07-29T14:31:22;0.82;;;0.50;;
73898;SDS011;62234;50.892;12.724;2023-07-29T14:33:49;0.35;;;0.30;;
73898;SDS011;62234;50.892;12.724;2023-07-29T14:36:15;0.50;;;0.50;;
73898;SDS011;62234;50.892;12.724;2023-07-29T14:38:41;0.70;;;0.52;;